createdAt,value
2018-07-10T00:00:39.350Z,1008.6
2018-07-10T00:01:41.391Z,1008.6
2018-07-10T00:02:43.415Z,1008.7
2018-07-10T00:03:45.460Z,1008.6
2018-07-10T00:04:47.492Z,1008.6
2018-07-10T00:05:49.522Z,1008.6
2018-07-10T00:06:51.846Z,1008.6
2018-07-10T00:07:53.886Z,1008.6
2018-07-10T00:08:55.908Z,1008.6
2018-07-10T00:09:57.941Z,1008.6
2018-07-10T00:11:00.258Z,1008.6
2018-07-10T00:12:02.586Z,1008.6
2018-07-10T00:13:05.277Z,1008.5
2018-07-10T00:14:07.309Z,1008.5
2018-07-10T00:15:09.632Z,1008.5
2018-07-10T00:16:11.669Z,1008.5
2018-07-10T00:17:13.988Z,1008.5
2018-07-10T00:18:16.015Z,1008.5
2018-07-10T00:19:18.047Z,1008.5
2018-07-10T00:20:20.094Z,1008.5
2018-07-10T00:21:22.118Z,1008.5
2018-07-10T00:22:24.147Z,1008.5
2018-07-10T00:23:26.176Z,1008.6
2018-07-10T00:24:28.214Z,1008.6
2018-07-10T00:25:30.242Z,1008.6
2018-07-10T00:26:32.284Z,1008.5
2018-07-10T00:27:34.596Z,1008.5
2018-07-10T00:28:36.629Z,1008.5
2018-07-10T00:29:38.674Z,1008.5
2018-07-10T00:30:40.705Z,1008.5
2018-07-10T00:31:42.741Z,1008.5
2018-07-10T00:32:44.774Z,1008.5
2018-07-10T00:33:46.816Z,1008.5
2018-07-10T00:34:48.852Z,1008.5
2018-07-10T00:35:50.881Z,1008.5
2018-07-10T00:36:53.223Z,1008.5
2018-07-10T00:37:55.250Z,1008.5
2018-07-10T00:38:57.571Z,1008.5
2018-07-10T00:40:00.275Z,1008.5
2018-07-10T00:41:02.603Z,1008.5
2018-07-10T00:42:04.635Z,1008.5
2018-07-10T00:43:06.668Z,1008.5
2018-07-10T00:44:08.706Z,1008.5
2018-07-10T00:45:10.744Z,1008.5
2018-07-10T00:46:12.767Z,1008.5
2018-07-10T00:47:14.797Z,1008.5
2018-07-10T00:48:16.839Z,1008.5
2018-07-10T00:49:18.869Z,1008.5
2018-07-10T00:50:20.900Z,1008.5
2018-07-10T00:51:22.940Z,1008.5
2018-07-10T00:52:24.975Z,1008.5
2018-07-10T00:53:27.013Z,1008.5
2018-07-10T00:54:29.329Z,1008.5
2018-07-10T00:55:31.666Z,1008.5
2018-07-10T00:56:33.700Z,1008.5
2018-07-10T00:57:35.727Z,1008.5
2018-07-10T00:58:37.761Z,1008.5
2018-07-10T00:59:39.805Z,1008.4
2018-07-10T01:00:41.823Z,1008.5
2018-07-10T01:01:43.855Z,1008.4
2018-07-10T01:02:45.895Z,1008.4
2018-07-10T01:03:47.925Z,1008.4
2018-07-10T01:04:49.954Z,1008.3
2018-07-10T01:05:51.995Z,1008.3
2018-07-10T01:06:54.303Z,1008.3
2018-07-10T01:07:56.353Z,1008.3
2018-07-10T01:08:58.377Z,1008.2
2018-07-10T01:10:00.416Z,1008.2
2018-07-10T01:11:02.453Z,1008.2
2018-07-10T01:12:04.482Z,1008.2
2018-07-10T01:13:06.517Z,1008.2
2018-07-10T01:14:08.552Z,1008.2
2018-07-10T01:15:10.585Z,1008.2
2018-07-10T01:16:12.627Z,1008.2
2018-07-10T01:17:14.652Z,1008.2
2018-07-10T01:18:16.695Z,1008.2
2018-07-10T01:19:18.719Z,1008.2
2018-07-10T01:20:20.754Z,1008.2
2018-07-10T01:21:23.085Z,1008.2
2018-07-10T01:22:25.500Z,1008.2
2018-07-10T01:23:27.829Z,1008.2
2018-07-10T01:24:30.245Z,1008.1
2018-07-10T01:25:32.281Z,1008.1
2018-07-10T01:26:34.594Z,1008.1
2018-07-10T01:27:36.612Z,1008.1
2018-07-10T01:28:38.657Z,1008.1
2018-07-10T01:29:40.693Z,1008
2018-07-10T01:30:42.716Z,1008.1
2018-07-10T01:31:45.042Z,1008
2018-07-10T01:32:47.081Z,1008
2018-07-10T01:33:49.426Z,1008
2018-07-10T01:34:51.853Z,1008
2018-07-10T01:35:53.884Z,1008
2018-07-10T01:36:55.921Z,1008
2018-07-10T01:37:57.957Z,1008
2018-07-10T01:38:59.989Z,1008
2018-07-10T01:40:02.032Z,1008
2018-07-10T01:41:04.057Z,1008
2018-07-10T01:42:06.086Z,1008
2018-07-10T01:43:08.136Z,1008
2018-07-10T01:44:10.173Z,1007.9
2018-07-10T01:45:12.206Z,1007.9
2018-07-10T01:46:14.246Z,1007.9
2018-07-10T01:47:16.281Z,1008
2018-07-10T01:48:18.317Z,1007.9
2018-07-10T01:49:20.344Z,1007.9
2018-07-10T01:50:22.390Z,1008
2018-07-10T01:51:24.426Z,1008
2018-07-10T01:52:26.450Z,1007.9
2018-07-10T01:53:28.489Z,1007.9
2018-07-10T01:54:30.520Z,1007.9
2018-07-10T01:55:32.556Z,1007.9
2018-07-10T01:56:34.977Z,1007.9
2018-07-10T01:57:36.938Z,1007.9
2018-07-10T01:58:38.971Z,1007.8
2018-07-10T01:59:40.995Z,1007.9
2018-07-10T02:00:43.031Z,1007.9
2018-07-10T02:01:45.076Z,1007.9
2018-07-10T02:02:47.112Z,1007.9
2018-07-10T02:03:49.437Z,1007.8
2018-07-10T02:04:51.479Z,1007.8
2018-07-10T02:05:53.509Z,1007.9
2018-07-10T02:06:55.540Z,1007.8
2018-07-10T02:07:57.569Z,1007.8
2018-07-10T02:08:59.622Z,1007.8
2018-07-10T02:10:01.663Z,1007.8
2018-07-10T02:11:04.070Z,1007.9
2018-07-10T02:12:06.110Z,1007.9
2018-07-10T02:13:08.143Z,1007.9
2018-07-10T02:14:10.774Z,1007.8
2018-07-10T02:15:12.718Z,1007.8
2018-07-10T02:16:14.746Z,1007.8
2018-07-10T02:17:16.777Z,1007.8
2018-07-10T02:18:19.200Z,1007.8
2018-07-10T02:19:21.229Z,1007.8
2018-07-10T02:20:23.262Z,1007.8
2018-07-10T02:21:25.590Z,1007.7
2018-07-10T02:22:27.620Z,1007.8
2018-07-10T02:23:29.672Z,1007.7
2018-07-10T02:24:32.371Z,1007.8
2018-07-10T02:25:34.404Z,1007.8
2018-07-10T02:26:36.440Z,1007.8
2018-07-10T02:27:38.466Z,1007.8
2018-07-10T02:28:40.500Z,1007.8
2018-07-10T02:29:42.917Z,1007.8
2018-07-10T02:30:44.960Z,1007.8
2018-07-10T02:31:47.980Z,1007.8
2018-07-10T02:32:50.288Z,1007.8
2018-07-10T02:33:52.728Z,1007.8
2018-07-10T02:34:55.332Z,1007.8
2018-07-10T02:35:57.363Z,1007.8
2018-07-10T02:36:59.394Z,1007.7
2018-07-10T02:38:01.429Z,1007.8
2018-07-10T02:39:03.760Z,1007.8
2018-07-10T02:40:06.356Z,1007.8
2018-07-10T02:41:08.386Z,1007.8
2018-07-10T02:42:10.712Z,1007.7
2018-07-10T02:43:12.744Z,1007.7
2018-07-10T02:44:15.070Z,1007.7
2018-07-10T02:45:17.105Z,1007.7
2018-07-10T02:46:19.431Z,1007.8
2018-07-10T02:47:21.472Z,1007.7
2018-07-10T02:48:23.502Z,1007.7
2018-07-10T02:49:25.546Z,1007.7
2018-07-10T02:50:27.588Z,1007.7
2018-07-10T02:51:29.613Z,1007.7
2018-07-10T02:52:32.354Z,1007.8
2018-07-10T02:53:34.440Z,1007.8
2018-07-10T02:54:36.437Z,1007.7
2018-07-10T02:55:38.469Z,1007.7
2018-07-10T02:56:40.802Z,1007.7
2018-07-10T02:57:43.137Z,1007.7
2018-07-10T02:58:45.472Z,1007.7
2018-07-10T02:59:47.782Z,1007.7
2018-07-10T03:00:50.398Z,1007.7
2018-07-10T03:01:52.432Z,1007.7
2018-07-10T03:02:55.059Z,1007.7
2018-07-10T03:03:57.078Z,1007.7
2018-07-10T03:04:59.125Z,1007.8
2018-07-10T03:06:01.165Z,1007.7
2018-07-10T03:07:03.881Z,1007.7
2018-07-10T03:08:06.501Z,1007.7
2018-07-10T03:09:08.536Z,1007.7
2018-07-10T03:10:10.571Z,1007.7
2018-07-10T03:11:12.604Z,1007.7
2018-07-10T03:12:14.632Z,1007.7
2018-07-10T03:13:16.664Z,1007.7
2018-07-10T03:14:18.699Z,1007.7
2018-07-10T03:15:20.733Z,1007.7
2018-07-10T03:16:23.048Z,1007.7
2018-07-10T03:17:25.091Z,1007.7
2018-07-10T03:18:27.412Z,1007.7
2018-07-10T03:19:29.733Z,1007.7
2018-07-10T03:20:31.759Z,1007.7
2018-07-10T03:21:34.095Z,1007.7
2018-07-10T03:22:36.392Z,1007.7
2018-07-10T03:23:38.725Z,1007.6
2018-07-10T03:24:41.055Z,1007.7
2018-07-10T03:25:43.089Z,1007.6
2018-07-10T03:26:45.397Z,1007.7
2018-07-10T03:27:47.437Z,1007.7
2018-07-10T03:28:49.757Z,1007.6
2018-07-10T03:29:51.795Z,1007.6
2018-07-10T03:30:54.222Z,1007.6
2018-07-10T03:31:56.260Z,1007.6
2018-07-10T03:32:58.579Z,1007.7
2018-07-10T03:34:00.631Z,1007.6
2018-07-10T03:35:02.944Z,1007.6
2018-07-10T03:36:05.366Z,1007.6
2018-07-10T03:37:07.398Z,1007.6
2018-07-10T03:38:09.725Z,1007.6
2018-07-10T03:39:11.769Z,1007.6
2018-07-10T03:40:13.795Z,1007.6
2018-07-10T03:41:15.832Z,1007.6
2018-07-10T03:42:17.872Z,1007.5
2018-07-10T03:43:20.188Z,1007.5
2018-07-10T03:44:22.223Z,1007.6
2018-07-10T03:45:24.255Z,1007.6
2018-07-10T03:46:26.287Z,1007.6
2018-07-10T03:47:28.638Z,1007.6
2018-07-10T03:48:31.357Z,1007.6
2018-07-10T03:49:33.395Z,1007.6
2018-07-10T03:50:35.425Z,1007.6
2018-07-10T03:51:37.805Z,1007.6
2018-07-10T03:52:39.841Z,1007.6
2018-07-10T03:53:41.886Z,1007.6
2018-07-10T03:54:43.924Z,1007.6
2018-07-10T03:55:45.954Z,1007.6
2018-07-10T03:56:48.271Z,1007.6
2018-07-10T03:57:50.317Z,1007.6
2018-07-10T03:58:52.627Z,1007.6
2018-07-10T03:59:54.945Z,1007.6
2018-07-10T04:00:56.983Z,1007.6
2018-07-10T04:01:59.015Z,1007.6
2018-07-10T04:03:01.032Z,1007.6
2018-07-10T04:04:03.365Z,1007.6
2018-07-10T04:05:05.405Z,1007.6
2018-07-10T04:06:07.434Z,1007.6
2018-07-10T04:07:09.470Z,1007.6
2018-07-10T04:08:11.504Z,1007.6
2018-07-10T04:09:13.998Z,1007.5
2018-07-10T04:10:15.976Z,1007.5
2018-07-10T04:11:18.015Z,1007.5
2018-07-10T04:12:20.045Z,1007.6
2018-07-10T04:13:22.066Z,1007.6
2018-07-10T04:14:24.108Z,1007.6
2018-07-10T04:15:26.137Z,1007.6
2018-07-10T04:16:28.167Z,1007.7
2018-07-10T04:17:30.209Z,1007.6
2018-07-10T04:18:32.250Z,1007.6
2018-07-10T04:19:34.278Z,1007.6
2018-07-10T04:20:36.318Z,1007.6
2018-07-10T04:21:38.739Z,1007.6
2018-07-10T04:22:40.785Z,1007.6
2018-07-10T04:23:43.114Z,1007.6
2018-07-10T04:24:45.156Z,1007.6
2018-07-10T04:25:47.187Z,1007.6
2018-07-10T04:26:49.229Z,1007.6
2018-07-10T04:27:51.262Z,1007.6
2018-07-10T04:28:53.341Z,1007.6
2018-07-10T04:29:55.326Z,1007.6
2018-07-10T04:30:57.361Z,1007.6
2018-07-10T04:31:59.392Z,1007.6
2018-07-10T04:33:01.430Z,1007.6
2018-07-10T04:34:03.847Z,1007.6
2018-07-10T04:35:05.887Z,1007.7
2018-07-10T04:36:08.194Z,1007.7
2018-07-10T04:37:10.242Z,1007.7
2018-07-10T04:38:12.273Z,1007.7
2018-07-10T04:39:14.314Z,1007.7
2018-07-10T04:40:16.349Z,1007.7
2018-07-10T04:41:18.386Z,1007.7
2018-07-10T04:42:20.492Z,1007.8
2018-07-10T04:43:23.213Z,1007.7
2018-07-10T04:44:25.632Z,1007.7
2018-07-10T04:45:27.682Z,1007.7
2018-07-10T04:46:29.725Z,1007.7
2018-07-10T04:47:32.055Z,1007.7
2018-07-10T04:48:34.095Z,1007.7
2018-07-10T04:49:36.133Z,1007.7
2018-07-10T04:50:38.311Z,1007.7
2018-07-10T04:51:40.638Z,1007.7
2018-07-10T04:52:43.054Z,1007.7
2018-07-10T04:53:45.084Z,1007.7
2018-07-10T04:54:47.131Z,1007.7
2018-07-10T04:55:49.156Z,1007.7
2018-07-10T04:56:51.198Z,1007.7
2018-07-10T04:57:53.227Z,1007.6
2018-07-10T04:58:55.557Z,1007.7
2018-07-10T04:59:57.588Z,1007.7
2018-07-10T05:00:59.629Z,1007.7
2018-07-10T05:02:02.068Z,1007.7
2018-07-10T05:03:04.107Z,1007.7
2018-07-10T05:04:06.130Z,1007.7
2018-07-10T05:05:08.471Z,1007.7
2018-07-10T05:06:10.508Z,1007.7
2018-07-10T05:07:12.542Z,1007.7
2018-07-10T05:08:14.568Z,1007.7
2018-07-10T05:09:16.617Z,1007.7
2018-07-10T05:10:18.652Z,1007.6
2018-07-10T05:11:20.975Z,1007.7
2018-07-10T05:12:23.007Z,1007.6
2018-07-10T05:13:25.047Z,1007.7
2018-07-10T05:14:27.086Z,1007.7
2018-07-10T05:15:29.119Z,1007.7
2018-07-10T05:16:31.170Z,1007.7
2018-07-10T05:17:33.534Z,1007.7
2018-07-10T05:18:35.820Z,1007.6
2018-07-10T05:19:37.859Z,1007.6
2018-07-10T05:20:40.278Z,1007.6
2018-07-10T05:21:42.612Z,1007.6
2018-07-10T05:22:44.650Z,1007.6
2018-07-10T05:23:46.684Z,1007.6
2018-07-10T05:24:49.023Z,1007.6
2018-07-10T05:25:51.064Z,1007.6
2018-07-10T05:26:53.105Z,1007.7
2018-07-10T05:27:55.127Z,1007.6
2018-07-10T05:28:57.260Z,1007.6
2018-07-10T05:29:59.208Z,1007.6
2018-07-10T05:31:01.535Z,1007.6
2018-07-10T05:32:03.570Z,1007.6
2018-07-10T05:33:05.612Z,1007.6
2018-07-10T05:34:07.932Z,1007.6
2018-07-10T05:35:09.959Z,1007.6
2018-07-10T05:36:12.672Z,1007.5
2018-07-10T05:37:14.791Z,1007.5
2018-07-10T05:38:17.033Z,1007.6
2018-07-10T05:39:19.065Z,1007.6
2018-07-10T05:40:21.108Z,1007.6
2018-07-10T05:41:23.436Z,1007.6
2018-07-10T05:42:25.470Z,1007.5
2018-07-10T05:43:27.505Z,1007.5
2018-07-10T05:44:29.553Z,1007.5
2018-07-10T05:45:31.586Z,1007.5
2018-07-10T05:46:33.726Z,1007.5
2018-07-10T05:47:36.127Z,1007.5
2018-07-10T05:48:38.164Z,1007.6
2018-07-10T05:49:40.213Z,1007.5
2018-07-10T05:50:42.621Z,1007.6
2018-07-10T05:51:45.472Z,1007.6
2018-07-10T05:52:47.450Z,1007.6
2018-07-10T05:53:49.763Z,1007.6
2018-07-10T05:54:51.807Z,1007.6
2018-07-10T05:55:53.843Z,1007.5
2018-07-10T05:56:55.886Z,1007.5
2018-07-10T05:57:57.930Z,1007.5
2018-07-10T05:59:00.241Z,1007.5
2018-07-10T06:00:02.886Z,1007.5
2018-07-10T06:01:05.308Z,1007.5
2018-07-10T06:02:07.342Z,1007.5
2018-07-10T06:03:09.386Z,1007.5
2018-07-10T06:04:11.413Z,1007.5
2018-07-10T06:05:13.453Z,1007.5
2018-07-10T06:06:15.483Z,1007.5
2018-07-10T06:07:17.832Z,1007.5
2018-07-10T06:08:20.163Z,1007.5
2018-07-10T06:09:22.202Z,1007.5
2018-07-10T06:10:24.248Z,1007.5
2018-07-10T06:11:26.679Z,1007.5
2018-07-10T06:12:28.711Z,1007.5
2018-07-10T06:13:31.036Z,1007.5
2018-07-10T06:14:33.353Z,1007.5
2018-07-10T06:15:35.398Z,1007.5
2018-07-10T06:16:37.442Z,1007.5
2018-07-10T06:17:39.462Z,1007.5
2018-07-10T06:18:41.813Z,1007.5
2018-07-10T06:19:43.866Z,1007.4
2018-07-10T06:20:45.903Z,1007.5
2018-07-10T06:21:48.222Z,1007.4
2018-07-10T06:22:50.647Z,1007.4
2018-07-10T06:23:52.684Z,1007.4
2018-07-10T06:24:54.718Z,1007.5
2018-07-10T06:25:56.767Z,1007.5
2018-07-10T06:26:58.799Z,1007.5
2018-07-10T06:28:00.841Z,1007.4
2018-07-10T06:29:03.161Z,1007.4
2018-07-10T06:30:05.195Z,1007.4
2018-07-10T06:31:07.533Z,1007.5
2018-07-10T06:32:09.855Z,1007.5
2018-07-10T06:33:11.901Z,1007.5
2018-07-10T06:34:13.941Z,1007.5
2018-07-10T06:35:16.268Z,1007.5
2018-07-10T06:36:18.302Z,1007.5
2018-07-10T06:37:20.641Z,1007.5
2018-07-10T06:38:22.682Z,1007.5
2018-07-10T06:39:24.729Z,1007.5
2018-07-10T06:40:26.763Z,1007.5
2018-07-10T06:41:29.087Z,1007.6
2018-07-10T06:42:31.403Z,1007.5
2018-07-10T06:43:33.454Z,1007.6
2018-07-10T06:44:35.498Z,1007.6
2018-07-10T06:45:37.532Z,1007.6
2018-07-10T06:46:39.570Z,1007.6
2018-07-10T06:47:41.612Z,1007.6
2018-07-10T06:48:43.670Z,1007.6
2018-07-10T06:49:45.688Z,1007.6
2018-07-10T06:50:47.727Z,1007.6
2018-07-10T06:51:50.078Z,1007.6
2018-07-10T06:52:52.288Z,1007.6
2018-07-10T06:53:54.162Z,1007.6
2018-07-10T06:54:56.209Z,1007.6
2018-07-10T06:55:58.912Z,1007.7
2018-07-10T06:57:00.961Z,1007.6
2018-07-10T06:58:03.290Z,1007.6
2018-07-10T06:59:05.338Z,1007.6
2018-07-10T07:00:07.378Z,1007.6
2018-07-10T07:01:09.730Z,1007.6
2018-07-10T07:02:11.768Z,1007.6
2018-07-10T07:03:13.817Z,1007.6
2018-07-10T07:04:15.858Z,1007.6
2018-07-10T07:05:17.883Z,1007.6
2018-07-10T07:06:19.925Z,1007.6
2018-07-10T07:07:21.970Z,1007.7
2018-07-10T07:08:24.016Z,1007.7
2018-07-10T07:09:26.058Z,1007.7
2018-07-10T07:10:28.102Z,1007.7
2018-07-10T07:11:30.138Z,1007.7
2018-07-10T07:12:32.172Z,1007.7
2018-07-10T07:13:34.210Z,1007.7
2018-07-10T07:14:36.266Z,1007.7
2018-07-10T07:15:38.295Z,1007.6
2018-07-10T07:16:40.330Z,1007.7
2018-07-10T07:17:42.366Z,1007.8
2018-07-10T07:18:44.412Z,1007.7
2018-07-10T07:19:46.753Z,1007.7
2018-07-10T07:20:48.795Z,1007.8
2018-07-10T07:21:50.837Z,1007.8
2018-07-10T07:22:53.179Z,1007.7
2018-07-10T07:23:55.228Z,1007.8
2018-07-10T07:24:57.270Z,1007.7
2018-07-10T07:25:59.307Z,1007.8
2018-07-10T07:27:01.348Z,1007.8
2018-07-10T07:28:03.384Z,1007.8
2018-07-10T07:29:05.428Z,1007.9
2018-07-10T07:30:07.465Z,1007.8
2018-07-10T07:31:09.514Z,1007.8
2018-07-10T07:32:11.564Z,1007.8
2018-07-10T07:33:13.595Z,1007.8
2018-07-10T07:34:15.645Z,1007.8
2018-07-10T07:35:17.686Z,1007.8
2018-07-10T07:36:20.021Z,1007.9
2018-07-10T07:37:22.341Z,1007.8
2018-07-10T07:38:24.395Z,1007.9
2018-07-10T07:39:26.437Z,1007.8
2018-07-10T07:40:28.522Z,1007.8
2018-07-10T07:41:30.516Z,1007.8
2018-07-10T07:42:32.551Z,1007.8
2018-07-10T07:43:34.799Z,1007.8
2018-07-10T07:44:37.621Z,1007.8
2018-07-10T07:45:40.132Z,1007.8
2018-07-10T07:46:42.660Z,1007.8
2018-07-10T07:47:44.705Z,1007.7
2018-07-10T07:48:46.751Z,1007.7
2018-07-10T07:49:49.100Z,1007.7
2018-07-10T07:50:51.421Z,1007.7
2018-07-10T07:51:53.509Z,1007.8
2018-07-10T07:52:56.168Z,1007.8
2018-07-10T07:53:58.211Z,1007.7
2018-07-10T07:55:00.256Z,1007.7
2018-07-10T07:56:02.313Z,1007.7
2018-07-10T07:57:04.345Z,1007.8
2018-07-10T07:58:06.408Z,1007.7
2018-07-10T07:59:08.461Z,1007.7
2018-07-10T08:00:10.884Z,1007.7
2018-07-10T08:01:13.252Z,1007.7
2018-07-10T08:02:15.292Z,1007.7
2018-07-10T08:03:17.341Z,1007.7
2018-07-10T08:04:19.399Z,1007.7
2018-07-10T08:05:21.418Z,1007.7
2018-07-10T08:06:23.764Z,1007.7
2018-07-10T08:07:25.808Z,1007.7
2018-07-10T08:08:27.838Z,1007.7
2018-07-10T08:09:29.883Z,1007.8
2018-07-10T08:10:31.926Z,1007.7
2018-07-10T08:11:33.974Z,1007.7
2018-07-10T08:12:36.018Z,1007.7
2018-07-10T08:13:38.040Z,1007.7
2018-07-10T08:14:40.090Z,1007.7
2018-07-10T08:15:42.133Z,1007.7
2018-07-10T08:16:44.170Z,1007.7
2018-07-10T08:17:46.207Z,1007.7
2018-07-10T08:18:48.261Z,1007.7
2018-07-10T08:19:50.690Z,1007.7
2018-07-10T08:20:52.724Z,1007.7
2018-07-10T08:21:54.771Z,1007.7
2018-07-10T08:22:56.822Z,1007.7
2018-07-10T08:23:58.861Z,1007.7
2018-07-10T08:25:00.907Z,1007.8
2018-07-10T08:26:03.343Z,1007.8
2018-07-10T08:27:05.391Z,1007.7
2018-07-10T08:28:07.708Z,1007.8
2018-07-10T08:29:09.755Z,1007.8
2018-07-10T08:30:11.802Z,1007.7
2018-07-10T08:31:13.837Z,1007.7
2018-07-10T08:32:15.874Z,1007.7
2018-07-10T08:33:17.931Z,1007.7
2018-07-10T08:34:19.969Z,1007.7
2018-07-10T08:35:22.014Z,1007.7
2018-07-10T08:36:24.061Z,1007.7
2018-07-10T08:37:26.100Z,1007.6
2018-07-10T08:38:28.129Z,1007.6
2018-07-10T08:39:30.184Z,1007.7
2018-07-10T08:40:32.506Z,1007.7
2018-07-10T08:41:34.545Z,1007.7
2018-07-10T08:42:36.595Z,1007.6
2018-07-10T08:43:38.639Z,1007.7
2018-07-10T08:44:40.681Z,1007.6
2018-07-10T08:45:42.725Z,1007.6
2018-07-10T08:46:44.859Z,1007.7
2018-07-10T08:47:46.904Z,1007.7
2018-07-10T08:48:48.947Z,1007.7
2018-07-10T08:49:51.276Z,1007.7
2018-07-10T08:50:53.610Z,1007.7
2018-07-10T08:51:55.949Z,1007.8
2018-07-10T08:52:57.992Z,1007.8
2018-07-10T08:54:00.038Z,1007.8
2018-07-10T08:55:02.073Z,1007.7
2018-07-10T08:56:05.074Z,1007.8
2018-07-10T08:57:07.110Z,1007.7
2018-07-10T08:58:09.159Z,1007.8
2018-07-10T08:59:11.206Z,1007.7
2018-07-10T09:00:13.255Z,1007.7
2018-07-10T09:01:15.286Z,1007.7
2018-07-10T09:02:17.336Z,1007.8
2018-07-10T09:03:19.373Z,1007.7
2018-07-10T09:04:21.709Z,1007.7
2018-07-10T09:05:23.752Z,1007.7
2018-07-10T09:06:25.796Z,1007.7
2018-07-10T09:07:27.845Z,1007.8
2018-07-10T09:08:29.877Z,1007.8
2018-07-10T09:09:31.915Z,1007.8
2018-07-10T09:10:34.256Z,1007.8
2018-07-10T09:11:36.292Z,1007.8
2018-07-10T09:12:38.334Z,1007.7
2018-07-10T09:13:40.377Z,1007.7
2018-07-10T09:14:42.422Z,1007.7
2018-07-10T09:15:44.460Z,1007.7
2018-07-10T09:16:46.504Z,1007.7
2018-07-10T09:17:48.542Z,1007.7
2018-07-10T09:18:50.579Z,1007.7
2018-07-10T09:19:53.024Z,1007.8
2018-07-10T09:20:55.064Z,1007.8
2018-07-10T09:21:57.109Z,1007.8
2018-07-10T09:22:59.152Z,1007.7
2018-07-10T09:24:01.198Z,1007.8
2018-07-10T09:25:03.237Z,1007.8
2018-07-10T09:26:05.282Z,1007.7
2018-07-10T09:27:07.340Z,1007.8
2018-07-10T09:28:09.384Z,1007.8
2018-07-10T09:29:11.699Z,1007.8
2018-07-10T09:30:14.032Z,1007.8
2018-07-10T09:31:16.083Z,1007.8
2018-07-10T09:32:18.411Z,1007.8
2018-07-10T09:33:20.485Z,1007.8
2018-07-10T09:34:22.500Z,1007.8
2018-07-10T09:35:24.546Z,1007.8
2018-07-10T09:36:26.582Z,1007.8
2018-07-10T09:37:29.024Z,1007.8
2018-07-10T09:38:31.361Z,1007.8
2018-07-10T09:39:33.406Z,1007.8
2018-07-10T09:40:35.451Z,1007.8
2018-07-10T09:41:37.495Z,1007.8
2018-07-10T09:42:39.548Z,1007.8
2018-07-10T09:43:41.585Z,1007.8
2018-07-10T09:44:43.634Z,1007.7
2018-07-10T09:45:45.685Z,1007.8
2018-07-10T09:46:48.057Z,1007.8
2018-07-10T09:47:50.491Z,1007.7
2018-07-10T09:48:52.541Z,1007.7
2018-07-10T09:49:54.585Z,1007.8
2018-07-10T09:50:56.643Z,1007.8
2018-07-10T09:51:58.972Z,1007.8
2018-07-10T09:53:01.288Z,1007.8
2018-07-10T09:54:03.343Z,1007.8
2018-07-10T09:55:05.476Z,1007.8
2018-07-10T09:56:08.351Z,1007.8
2018-07-10T09:57:10.684Z,1007.8
2018-07-10T09:58:13.341Z,1007.8
2018-07-10T09:59:15.692Z,1007.8
2018-07-10T10:00:17.728Z,1007.9
2018-07-10T10:01:20.122Z,1007.9
2018-07-10T10:02:22.484Z,1007.8
2018-07-10T10:03:24.559Z,1007.8
2018-07-10T10:04:26.606Z,1007.9
2018-07-10T10:05:28.660Z,1007.9
2018-07-10T10:06:30.793Z,1007.9
2018-07-10T10:07:33.384Z,1007.8
2018-07-10T10:08:35.434Z,1007.8
2018-07-10T10:09:37.775Z,1007.8
2018-07-10T10:10:39.822Z,1007.9
2018-07-10T10:11:41.867Z,1007.8
2018-07-10T10:12:44.216Z,1007.8
2018-07-10T10:13:46.269Z,1007.8
2018-07-10T10:14:48.899Z,1007.8
2018-07-10T10:15:51.215Z,1007.8
2018-07-10T10:16:53.278Z,1007.9
2018-07-10T10:17:55.604Z,1007.9
2018-07-10T10:18:57.645Z,1007.8
2018-07-10T10:19:59.699Z,1007.9
2018-07-10T10:21:02.317Z,1007.8
2018-07-10T10:22:04.368Z,1007.9
2018-07-10T10:23:06.710Z,1007.9
2018-07-10T10:24:09.772Z,1008
2018-07-10T10:25:12.965Z,1007.9
2018-07-10T10:26:15.017Z,1007.9
2018-07-10T10:27:17.070Z,1008
2018-07-10T10:28:19.683Z,1007.9
2018-07-10T10:29:21.735Z,1007.9
2018-07-10T10:30:23.788Z,1008
2018-07-10T10:31:25.832Z,1007.9
2018-07-10T10:32:27.885Z,1007.9
2018-07-10T10:33:29.929Z,1007.9
2018-07-10T10:34:32.255Z,1007.9
2018-07-10T10:35:34.336Z,1007.9
2018-07-10T10:36:36.364Z,1008
2018-07-10T10:37:38.418Z,1008
2018-07-10T10:38:40.463Z,1008
2018-07-10T10:39:42.793Z,1008
2018-07-10T10:40:44.841Z,1008
2018-07-10T10:41:46.890Z,1008
2018-07-10T10:42:48.937Z,1008
2018-07-10T10:43:50.992Z,1008
2018-07-10T10:44:53.032Z,1008
2018-07-10T10:45:55.083Z,1008
2018-07-10T10:46:57.132Z,1008
2018-07-10T10:47:59.172Z,1008
2018-07-10T10:49:01.218Z,1008
2018-07-10T10:50:03.274Z,1008
2018-07-10T10:51:06.005Z,1008
2018-07-10T10:52:08.048Z,1008
2018-07-10T10:53:10.088Z,1008.1
2018-07-10T10:54:12.126Z,1008
2018-07-10T10:55:14.455Z,1008
2018-07-10T10:56:16.793Z,1008
2018-07-10T10:57:18.857Z,1008
2018-07-10T10:58:20.903Z,1008
2018-07-10T10:59:23.230Z,1008
2018-07-10T11:00:25.281Z,1008
2018-07-10T11:01:27.322Z,1008
2018-07-10T11:02:29.857Z,1008.1
2018-07-10T11:03:31.808Z,1008.1
2018-07-10T11:04:33.848Z,1008.1
2018-07-10T11:05:35.898Z,1008.1
2018-07-10T11:06:38.264Z,1008.1
2018-07-10T11:07:40.850Z,1008
2018-07-10T11:08:43.184Z,1008.1
2018-07-10T11:09:45.514Z,1008
2018-07-10T11:10:47.959Z,1008
2018-07-10T11:11:50.003Z,1008.1
2018-07-10T11:12:52.046Z,1008
2018-07-10T11:13:54.093Z,1008.1
2018-07-10T11:14:56.133Z,1008
2018-07-10T11:15:58.178Z,1008
2018-07-10T11:17:00.630Z,1008
2018-07-10T11:18:02.673Z,1008
2018-07-10T11:19:04.727Z,1008
2018-07-10T11:20:06.778Z,1008
2018-07-10T11:21:09.203Z,1008
2018-07-10T11:22:11.550Z,1008
2018-07-10T11:23:13.590Z,1008
2018-07-10T11:24:15.644Z,1008
2018-07-10T11:25:17.690Z,1008.1
2018-07-10T11:26:19.747Z,1008
2018-07-10T11:27:22.079Z,1008
2018-07-10T11:28:24.130Z,1008
2018-07-10T11:29:26.183Z,1008
2018-07-10T11:30:28.226Z,1008.1
2018-07-10T11:31:30.265Z,1008.1
2018-07-10T11:32:32.314Z,1008
2018-07-10T11:33:34.636Z,1008
2018-07-10T11:34:36.682Z,1008.1
2018-07-10T11:35:39.015Z,1008.1
2018-07-10T11:36:41.063Z,1008.2
2018-07-10T11:37:43.100Z,1008.1
2018-07-10T11:38:45.146Z,1008.1
2018-07-10T11:39:47.199Z,1008.1
2018-07-10T11:40:49.244Z,1008.1
2018-07-10T11:41:51.572Z,1008.1
2018-07-10T11:42:53.619Z,1008.1
2018-07-10T11:43:55.970Z,1008.1
2018-07-10T11:44:58.298Z,1008.2
2018-07-10T11:46:00.342Z,1008.1
2018-07-10T11:47:02.396Z,1008.2
2018-07-10T11:48:04.433Z,1008.1
2018-07-10T11:49:06.483Z,1008.1
2018-07-10T11:50:08.811Z,1008.1
2018-07-10T11:51:10.856Z,1008.2
2018-07-10T11:52:12.906Z,1008.2
2018-07-10T11:53:14.949Z,1008.2
2018-07-10T11:54:17.004Z,1008.2
2018-07-10T11:55:19.348Z,1008.2
2018-07-10T11:56:21.402Z,1008.2
2018-07-10T11:57:23.458Z,1008.2
2018-07-10T11:58:25.494Z,1008.2
2018-07-10T11:59:27.828Z,1008.3
2018-07-10T12:00:29.880Z,1008.3
2018-07-10T12:01:32.220Z,1008.3
2018-07-10T12:02:34.858Z,1008.3
2018-07-10T12:03:36.922Z,1008.3
2018-07-10T12:04:38.967Z,1008.3
2018-07-10T12:05:41.011Z,1008.3
2018-07-10T12:06:43.064Z,1008.3
2018-07-10T12:07:45.109Z,1008.3
2018-07-10T12:08:47.453Z,1008.3
2018-07-10T12:09:49.507Z,1008.3
2018-07-10T12:10:51.536Z,1008.3
2018-07-10T12:11:53.581Z,1008.2
2018-07-10T12:12:55.621Z,1008.2
2018-07-10T12:13:57.673Z,1008.3
2018-07-10T12:14:59.720Z,1008.3
2018-07-10T12:16:01.777Z,1008.3
2018-07-10T12:17:03.824Z,1008.3
2018-07-10T12:18:05.872Z,1008.4
2018-07-10T12:19:07.914Z,1008.3
2018-07-10T12:20:10.268Z,1008.4
2018-07-10T12:21:12.324Z,1008.4
2018-07-10T12:22:14.361Z,1008.3
2018-07-10T12:23:16.406Z,1008.4
2018-07-10T12:24:18.458Z,1008.4
2018-07-10T12:25:20.798Z,1008.4
2018-07-10T12:26:23.229Z,1008.4
2018-07-10T12:27:25.270Z,1008.4
2018-07-10T12:28:27.641Z,1008.4
2018-07-10T12:29:29.692Z,1008.4
2018-07-10T12:30:31.729Z,1008.4
2018-07-10T12:31:34.357Z,1008.4
2018-07-10T12:32:36.784Z,1008.4
2018-07-10T12:33:38.832Z,1008.4
2018-07-10T12:34:41.173Z,1008.4
2018-07-10T12:35:43.504Z,1008.3
2018-07-10T12:36:45.843Z,1008.3
2018-07-10T12:37:47.896Z,1008.3
2018-07-10T12:38:49.937Z,1008.3
2018-07-10T12:39:51.989Z,1008.3
2018-07-10T12:40:54.040Z,1008.3
2018-07-10T12:41:56.087Z,1008.3
2018-07-10T12:42:58.128Z,1008.3
2018-07-10T12:44:00.471Z,1008.3
2018-07-10T12:45:02.821Z,1008.3
2018-07-10T12:46:05.155Z,1008.3
2018-07-10T12:47:07.204Z,1008.3
2018-07-10T12:48:09.289Z,1008.3
2018-07-10T12:49:11.330Z,1008.3
2018-07-10T12:50:13.375Z,1008.3
2018-07-10T12:51:15.430Z,1008.3
2018-07-10T12:52:17.485Z,1008.3
2018-07-10T12:53:19.517Z,1008.3
2018-07-10T12:54:21.570Z,1008.3
2018-07-10T12:55:23.614Z,1008.3
2018-07-10T12:56:25.665Z,1008.3
2018-07-10T12:57:27.708Z,1008.3
2018-07-10T12:58:29.768Z,1008.3
2018-07-10T12:59:32.106Z,1008.3